Aérodrome :
LOGIN :

S'inscrire | Disclaimer

   EN    FR    IT 

 










Légende :    VFR   VFR Marginal   IFR   IFR Intensif   IFR Très Intensif
Visi : 
Plafond : 
>= 8 km
>= 3000ft
5 à 8 km
1000 à 3000 ft
1500m à 5 km
500 à 1000 ft
800 à 1500m
200 à 500 ft
< 800m
< 200 ft
Symboles :   Orages  Brouillard  Fortes neiges  Fortes précipitations  Vent > 20 kt
SIGMETs :   Divers  Orages  Givrage  Turbulence  Onde Orograph.  Cendres Volcan.






- Altitude de l'aérodrome : 359 ft
- Code IATA : BVA


LFOB - Beauvais

DERNIER METAR :
  • 301630Z AUTO 18006KT 150V220 9999 FEW024 SCT033 BKN052 17/12 Q1014 TEMPO 3000 SHRA BKN020CB

METARs EXPIRÉS :
  • 301600Z AUTO 15007KT 120V190 9999 FEW022 SCT027 BKN035 17/13 Q1014 TEMPO 3000 SHRA BKN020CB
  • 301530Z AUTO 16006KT 130V210 9999 BKN022 BKN040 BKN050 17/12 Q1014 TEMPO 3000 SHRA BKN020CB
  • 301500Z AUTO 17008KT 9999 BKN022 BKN028 BKN043 16/12 Q1014 TEMPO 3000 SHRA BKN020CB
  • 301430Z AUTO 21006KT 170V240 9999 SCT017 BKN024 BKN032 16/12 Q1014 TEMPO 3000 SHRA BKN020CB

TAF AMD TAF LFOB
Valide du 30 à 12h jusqu'au 01 à 12h UTC


301209Z 3012/0112 27008KT 9999 BKN020
TEMPO 3012/3014 3000 RA BKN006 BKN013 BKN020CB
TEMPO 3014/3020 3000 SHRA BKN020CB
PROB40
TEMPO 0100/0106 2000 BR
PROB30 0103/0106 0800 FG
ATIS : +33 3 44 11 49 28



MET'MAP, la Météo Aéronautique d'un coup d'oeil ! - Copyright ORBIFLY Décembre 2007 - Disclaimer

ORBIFLY MET'MAP TEAM :

Programmation & Développement : Alexandra Zaïnal
Sur une idée originale de : Baudouin d'Aumeries
Soutien technique & logistique : Manuel Goepfert
Assistance : Marc-Olivier Méhu




SOURCES & CREDITS :

   NOAA